Time;durP1;ratioP1;P1;durP2;ratioP2;P2;SDS_P1;SDS_P2;PMS_P1;PMS_P2;Temp;Humidity;BMP_temperature;BMP_pressure;BME280_temperature;BME280_humidity;BME280_pressure;Samples;Min_cycle;Max_cycle;Signal;HPM_P1;HPM_P2
2022/08/03 00:01:24;;;;;;;1.15;0.30;;;22.20;70.30;;;;;;4787074;29;20112;-74
2022/08/03 00:03:51;;;;;;;1.52;0.30;;;22.10;70.40;;;;;;4772228;29;20043;-74
2022/08/03 00:06:18;;;;;;;1.33;0.25;;;22.10;70.50;;;;;;4770672;30;20086;-74
2022/08/03 00:08:45;;;;;;;1.05;0.40;;;22.00;70.60;;;;;;4789828;29;20055;-74
2022/08/03 00:11:12;;;;;;;0.63;0.20;;;22.00;70.80;;;;;;4764472;29;20116;-74
2022/08/03 00:13:39;;;;;;;1.70;0.25;;;22.00;70.90;;;;;;4784847;29;20070;-74
2022/08/03 00:16:06;;;;;;;2.17;0.30;;;21.90;71.00;;;;;;4786021;29;20070;-75
2022/08/03 00:18:36;;;;;;;2.42;0.60;;;21.90;71.20;;;;;;4785847;29;20109;-74
2022/08/03 00:21:04;;;;;;;2.08;0.30;;;21.90;71.30;;;;;;4790004;29;20116;-74
2022/08/03 00:23:32;;;;;;;2.50;0.30;;;21.80;71.40;;;;;;4789225;29;20120;-74
2022/08/03 00:26:21;;;;;;;1.27;0.40;;;21.80;71.50;;;;;;4763333;29;20443;-74
2022/08/03 00:28:49;;;;;;;2.63;0.30;;;21.80;71.70;;;;;;4785480;29;20083;-74
2022/08/03 00:31:16;;;;;;;0.95;0.30;;;21.80;71.80;;;;;;4771041;29;20079;-74
2022/08/03 00:34:04;;;;;;;1.90;0.40;;;21.80;71.80;;;;;;4770814;29;20082;-74
2022/08/03 00:36:32;;;;;;;1.83;0.20;;;21.70;71.80;;;;;;4794036;29;20059;-74
2022/08/03 00:38:59;;;;;;;0.80;0.28;;;21.70;71.90;;;;;;4786272;29;20492;-74
2022/08/03 00:41:26;;;;;;;0.40;0.20;;;21.70;72.00;;;;;;4755868;29;20105;-74
2022/08/03 00:43:53;;;;;;;0.47;0.20;;;21.70;72.20;;;;;;4786660;29;20047;-74
2022/08/03 00:46:23;;;;;;;1.10;0.32;;;21.60;72.30;;;;;;4792991;29;20043;-74
2022/08/03 00:48:50;;;;;;;0.63;0.25;;;21.60;72.40;;;;;;4790047;29;20108;-74
2022/08/03 00:51:20;;;;;;;1.05;0.30;;;21.60;72.50;;;;;;4786137;29;20074;-75
2022/08/03 00:53:48;;;;;;;1.33;0.20;;;21.50;72.60;;;;;;4799170;29;20051;-74
2022/08/03 00:56:16;;;;;;;0.90;0.30;;;21.50;72.70;;;;;;4786423;29;20142;-74
2022/08/03 00:58:44;;;;;;;1.38;0.20;;;21.50;72.80;;;;;;4777431;29;20047;-74
2022/08/03 01:01:11;;;;;;;1.85;0.38;;;21.40;72.90;;;;;;4784373;29;20079;-74
2022/08/03 01:03:39;;;;;;;1.40;0.20;;;21.40;73.00;;;;;;4790939;29;20107;-74
2022/08/03 01:06:18;;;;;;;1.10;0.28;;;21.40;73.10;;;;;;4770526;29;20468;-74
2022/08/03 01:08:53;;;;;;;1.20;0.20;;;21.40;73.20;;;;;;4784966;29;20051;-74
2022/08/03 01:11:37;;;;;;;0.60;0.22;;;21.30;73.30;;;;;;4776790;29;20079;-74
2022/08/03 01:14:31;;;;;;;2.28;0.30;;;21.30;73.40;;;;;;4785844;29;20444;-75
2022/08/03 01:17:10;;;;;;;0.80;0.30;;;21.20;73.50;;;;;;4785758;29;20100;-74
2022/08/03 01:20:00;;;;;;;0.70;0.30;;;21.20;73.60;;;;;;4786487;29;20138;-74
2022/08/03 01:22:38;;;;;;;2.75;0.20;;;21.20;73.70;;;;;;4784830;29;20082;-74
2022/08/03 01:25:08;;;;;;;1.27;0.22;;;21.10;73.80;;;;;;4784474;29;20104;-74
2022/08/03 01:28:06;;;;;;;2.85;0.38;;;21.10;73.90;;;;;;4787238;29;20109;-74
2022/08/03 01:30:35;;;;;;;1.83;0.22;;;21.10;74.00;;;;;;4790536;29;20101;-74
2022/08/03 01:33:05;;;;;;;0.60;0.30;;;21.10;74.20;;;;;;4791023;29;20143;-74
2022/08/03 01:35:43;;;;;;;1.55;0.30;;;21.10;74.20;;;;;;4776822;29;20046;-74
2022/08/03 01:38:27;;;;;;;0.93;0.40;;;21.00;74.20;;;;;;4786585;29;20443;-74
2022/08/03 01:40:55;;;;;;;1.13;0.30;;;21.00;74.30;;;;;;4796546;29;20449;-74
2022/08/03 01:43:27;;;;;;;1.98;0.40;;;21.00;74.50;;;;;;4806600;29;20163;-74
2022/08/03 01:46:16;;;;;;;0.90;0.35;;;21.00;74.60;;;;;;4783436;29;20073;-74
2022/08/03 01:48:46;;;;;;;1.73;0.40;;;20.90;74.60;;;;;;4796835;29;20157;-74
2022/08/03 01:51:17;;;;;;;3.60;0.50;;;20.90;74.70;;;;;;4774645;29;20099;-75
2022/08/03 01:53:45;;;;;;;3.67;0.43;;;20.90;74.80;;;;;;4787475;29;20070;-74
2022/08/03 01:56:14;;;;;;;2.47;0.40;;;20.90;74.80;;;;;;4784780;29;20093;-74
2022/08/03 01:58:44;;;;;;;1.60;0.32;;;20.90;74.90;;;;;;4801282;29;20039;-74
2022/08/03 02:01:12;;;;;;;0.60;0.20;;;20.90;75.10;;;;;;4787177;29;20055;-74
2022/08/03 02:03:42;;;;;;;0.80;0.20;;;20.80;75.10;;;;;;4786473;29;20411;-74
2022/08/03 02:06:31;;;;;;;1.52;0.20;;;20.80;75.20;;;;;;4786036;29;20046;-74
2022/08/03 02:09:21;;;;;;;0.98;0.20;;;20.80;75.30;;;;;;4782170;29;20138;-75
2022/08/03 02:11:49;;;;;;;1.00;0.40;;;20.80;75.40;;;;;;4788244;29;20055;-75
2022/08/03 02:14:18;;;;;;;1.67;0.50;;;20.70;75.40;;;;;;4792692;29;20115;-74
2022/08/03 02:16:47;;;;;;;0.93;0.40;;;20.70;75.50;;;;;;4801747;29;20086;-74
2022/08/03 02:19:16;;;;;;;0.77;0.20;;;20.70;75.60;;;;;;4804020;29;20039;-75
2022/08/03 02:21:47;;;;;;;1.13;0.30;;;20.70;75.70;;;;;;4788380;29;20134;-74
2022/08/03 02:24:26;;;;;;;1.35;0.30;;;20.60;75.70;;;;;;4777312;29;20080;-74
2022/08/03 02:26:55;;;;;;;2.92;0.35;;;20.60;75.90;;;;;;4791534;29;20121;-74
2022/08/03 02:29:24;;;;;;;0.40;0.20;;;20.60;75.90;;;;;;4801579;29;20055;-75
2022/08/03 02:32:10;;;;;;;2.30;0.20;;;20.60;76.00;;;;;;4781405;29;20055;-74
2022/08/03 02:34:41;;;;;;;1.33;0.20;;;20.60;76.10;;;;;;4799634;29;20053;-74
2022/08/03 02:37:09;;;;;;;1.60;0.30;;;20.50;76.10;;;;;;4774962;29;20044;-74
2022/08/03 02:39:38;;;;;;;1.30;0.22;;;20.50;76.30;;;;;;4778457;29;20089;-74
2022/08/03 02:42:08;;;;;;;1.05;0.30;;;20.50;76.40;;;;;;4813291;29;20484;-74
2022/08/03 02:44:39;;;;;;;2.15;0.40;;;20.50;76.50;;;;;;4790858;29;20051;-74
2022/08/03 02:47:09;;;;;;;1.30;0.32;;;20.40;77.20;;;;;;4802217;29;20122;-74
2022/08/03 02:49:37;;;;;;;1.67;0.40;;;20.40;76.60;;;;;;4779103;29;20074;-74
2022/08/03 02:52:22;;;;;;;2.03;0.25;;;20.40;76.80;;;;;;4816386;29;20139;-75
2022/08/03 02:54:53;;;;;;;1.42;0.30;;;20.40;76.80;;;;;;4792041;29;20134;-74
2022/08/03 02:57:21;;;;;;;2.22;0.40;;;20.30;77.00;;;;;;4804918;29;20616;-74
2022/08/03 02:59:52;;;;;;;0.88;0.30;;;20.30;77.00;;;;;;4806367;29;20524;-74
2022/08/03 03:02:19;;;;;;;1.38;0.30;;;20.30;77.10;;;;;;4773253;29;20096;-74
2022/08/03 03:04:50;;;;;;;0.95;0.30;;;20.30;77.20;;;;;;4789886;29;20063;-74
2022/08/03 03:07:37;;;;;;;1.15;0.30;;;20.20;77.10;;;;;;4779099;29;20410;-74
2022/08/03 03:10:21;;;;;;;1.70;0.30;;;20.20;77.30;;;;;;4774065;29;20055;-74
2022/08/03 03:12:55;;;;;;;0.98;0.20;;;20.20;77.40;;;;;;4763308;29;20051;-74
2022/08/03 03:15:27;;;;;;;2.25;0.57;;;20.20;77.50;;;;;;4782863;29;20112;-74
2022/08/03 03:17:55;;;;;;;1.20;0.32;;;20.20;77.60;;;;;;4799519;29;20475;-74
2022/08/03 03:20:23;;;;;;;0.98;0.30;;;20.10;77.60;;;;;;4805530;29;20114;-74
2022/08/03 03:22:59;;;;;;;1.45;0.40;;;20.10;77.70;;;;;;4792316;29;20039;-74
2022/08/03 03:25:30;;;;;;;2.10;0.40;;;20.10;77.80;;;;;;4773522;30;20393;-74
2022/08/03 03:27:58;;;;;;;1.42;0.28;;;20.10;77.80;;;;;;4777366;29;20108;-74
2022/08/03 03:30:26;;;;;;;0.80;0.40;;;20.00;77.80;;;;;;4786206;29;20051;-74
2022/08/03 03:32:53;;;;;;;1.60;0.45;;;20.00;77.90;;;;;;4769635;29;20043;-74
2022/08/03 03:35:21;;;;;;;1.20;0.55;;;20.00;78.00;;;;;;4794553;29;20157;-74
2022/08/03 03:37:48;;;;;;;3.47;0.47;;;20.00;78.10;;;;;;4785524;29;20193;-74
2022/08/03 03:40:15;;;;;;;0.93;0.45;;;20.00;78.20;;;;;;4798108;29;20144;-74
2022/08/03 03:42:42;;;;;;;1.77;0.52;;;20.00;78.20;;;;;;4770948;30;20575;-74
2022/08/03 03:45:09;;;;;;;0.80;0.30;;;20.00;78.30;;;;;;4792236;29;20125;-74
2022/08/03 03:47:37;;;;;;;1.55;0.40;;;19.90;78.30;;;;;;4771199;30;20135;-74
2022/08/03 03:50:05;;;;;;;1.77;0.50;;;19.90;78.40;;;;;;4777342;29;20078;-75
2022/08/03 03:52:32;;;;;;;1.85;0.73;;;19.90;78.50;;;;;;4793257;29;20082;-74
2022/08/03 03:54:59;;;;;;;2.30;0.45;;;19.90;78.50;;;;;;4773761;29;20055;-75
2022/08/03 03:57:28;;;;;;;0.88;0.35;;;19.90;78.60;;;;;;4771220;29;20388;-75
2022/08/03 03:59:55;;;;;;;1.48;0.40;;;19.80;78.60;;;;;;4789385;29;20081;-75
2022/08/03 04:02:22;;;;;;;1.60;0.25;;;19.80;78.70;;;;;;4786793;29;20074;-74
2022/08/03 04:13:21;;;;;;;1.65;0.40;;;19.70;79.10;;;;;;4793521;29;20047;-74
2022/08/03 04:15:50;;;;;;;1.95;0.30;;;19.70;79.10;;;;;;4774952;29;20118;-74
2022/08/03 04:18:18;;;;;;;1.20;0.50;;;19.70;79.10;;;;;;4801832;29;20428;-74
2022/08/03 04:20:49;;;;;;;2.35;0.35;;;19.70;79.20;;;;;;4798218;29;20517;-74
2022/08/03 04:23:21;;;;;;;1.58;0.32;;;19.70;79.20;;;;;;4792828;29;20079;-74
2022/08/03 04:25:49;;;;;;;1.60;0.50;;;19.70;79.20;;;;;;4786512;29;20116;-74
2022/08/03 04:28:18;;;;;;;2.13;0.32;;;19.70;79.20;;;;;;4771530;30;20144;-74
2022/08/03 04:31:00;;;;;;;1.40;0.40;;;19.80;79.20;;;;;;4765106;29;20418;-74
2022/08/03 04:33:30;;;;;;;2.28;0.50;;;19.80;79.30;;;;;;4797057;29;20489;-74
2022/08/03 04:36:00;;;;;;;2.80;0.47;;;19.80;79.30;;;;;;4779326;29;20071;-74
2022/08/03 04:38:33;;;;;;;3.03;0.50;;;19.80;79.30;;;;;;4807852;29;20375;-74
2022/08/03 04:41:00;;;;;;;1.20;0.43;;;19.80;79.30;;;;;;4770860;29;20429;-74
2022/08/03 04:43:31;;;;;;;2.25;0.70;;;19.80;79.40;;;;;;4787362;29;20108;-74
2022/08/03 04:46:00;;;;;;;2.13;0.60;;;19.80;79.40;;;;;;4778665;29;20549;-74
2022/08/03 04:48:27;;;;;;;3.35;0.52;;;19.90;79.40;;;;;;4780688;29;20488;-74
2022/08/03 04:50:55;;;;;;;2.88;0.70;;;19.90;79.40;;;;;;4794150;29;20676;-74
2022/08/03 04:53:22;;;;;;;3.00;0.55;;;20.00;79.40;;;;;;4793589;29;20070;-74
2022/08/03 04:55:49;;;;;;;1.35;0.60;;;20.00;79.40;;;;;;4797148;29;20515;-74
2022/08/03 04:58:16;;;;;;;2.28;0.50;;;20.00;79.40;;;;;;4762687;29;20133;-74
2022/08/03 05:00:44;;;;;;;2.05;0.68;;;20.10;79.40;;;;;;4773367;29;20062;-74
2022/08/03 05:03:11;;;;;;;2.92;0.70;;;20.20;79.40;;;;;;4787717;29;20072;-74
2022/08/03 05:05:49;;;;;;;2.63;0.90;;;20.20;80.00;;;;;;4793363;29;20100;-74
2022/08/03 05:08:16;;;;;;;2.22;0.60;;;20.20;80.00;;;;;;4787413;29;20039;-74
2022/08/03 05:10:54;;;;;;;1.58;0.60;;;20.30;79.40;;;;;;4808541;29;20109;-74
2022/08/03 05:13:24;;;;;;;2.22;0.70;;;20.30;79.30;;;;;;4772024;29;20050;-73
2022/08/03 05:15:51;;;;;;;1.42;0.60;;;20.40;79.30;;;;;;4784396;29;20067;-71
2022/08/03 05:18:18;;;;;;;4.22;0.80;;;20.40;79.30;;;;;;4791069;29;20043;-71
2022/08/03 05:20:46;;;;;;;1.15;0.47;;;20.40;79.20;;;;;;4808587;29;20478;-74
2022/08/03 05:23:13;;;;;;;3.55;0.98;;;20.50;79.30;;;;;;4799487;29;20071;-74
2022/08/03 05:25:40;;;;;;;2.53;0.95;;;20.50;79.30;;;;;;4754745;29;20079;-73
2022/08/03 05:28:16;;;;;;;4.00;1.17;;;20.60;79.20;;;;;;4798869;29;20078;-72
2022/08/03 05:30:45;;;;;;;2.88;1.00;;;20.60;79.60;;;;;;4791667;29;20043;-73
2022/08/03 05:33:14;;;;;;;5.57;1.15;;;20.60;79.50;;;;;;4772215;29;20061;-73
2022/08/03 05:35:41;;;;;;;2.70;1.00;;;20.70;79.40;;;;;;4770129;29;20142;-73
2022/08/03 05:38:28;;;;;;;3.58;1.33;;;20.80;79.30;;;;;;4772823;29;20051;-74
2022/08/03 05:41:04;;;;;;;4.57;1.65;;;20.80;80.00;;;;;;4809094;29;20580;-73
2022/08/03 05:43:51;;;;;;;3.75;1.35;;;20.90;79.30;;;;;;4765052;29;20051;-73
2022/08/03 05:46:19;;;;;;;2.70;1.02;;;21.00;79.20;;;;;;4784541;29;20517;-73
2022/08/03 05:48:46;;;;;;;4.45;1.42;;;21.00;79.20;;;;;;4794752;29;20134;-73
2022/08/03 05:51:13;;;;;;;3.88;1.30;;;21.10;79.10;;;;;;4784403;29;20075;-73
2022/08/03 05:53:42;;;;;;;2.53;1.08;;;21.20;78.90;;;;;;4785576;29;20458;-73
2022/08/03 05:56:09;;;;;;;2.65;1.00;;;21.20;78.70;;;;;;4770079;29;20043;-73
2022/08/03 05:58:45;;;;;;;4.85;0.93;;;21.30;78.60;;;;;;4785437;29;20141;-74
2022/08/03 06:01:15;;;;;;;1.98;0.82;;;21.40;78.50;;;;;;4785203;29;20059;-73
2022/08/03 06:03:42;;;;;;;2.03;0.93;;;21.50;78.30;;;;;;4787200;29;20051;-74
2022/08/03 06:06:10;;;;;;;2.22;0.80;;;21.60;78.10;;;;;;4787495;29;20558;-71
2022/08/03 06:08:38;;;;;;;2.65;0.77;;;21.70;77.90;;;;;;4773290;29;20058;-73
2022/08/03 06:11:05;;;;;;;2.33;0.90;;;21.80;77.80;;;;;;4773414;29;20142;-73
2022/08/03 06:13:32;;;;;;;2.35;0.98;;;21.90;77.70;;;;;;4783534;29;20047;-73
2022/08/03 06:15:59;;;;;;;2.55;1.00;;;22.00;77.50;;;;;;4772337;29;20090;-73
2022/08/03 06:18:26;;;;;;;4.25;0.95;;;22.00;77.40;;;;;;4788999;29;20070;-73
2022/08/03 06:20:53;;;;;;;2.97;0.73;;;22.10;77.20;;;;;;4786105;29;20048;-73
2022/08/03 06:23:21;;;;;;;2.65;0.60;;;22.20;77.10;;;;;;4783545;29;20058;-74
2022/08/03 06:25:48;;;;;;;2.95;0.80;;;22.20;77.00;;;;;;4796384;29;20059;-74
2022/08/03 06:28:16;;;;;;;2.53;0.50;;;22.20;77.00;;;;;;4769691;30;20087;-74
2022/08/03 06:31:03;;;;;;;1.75;0.40;;;22.30;77.00;;;;;;4786549;29;20043;-74
2022/08/03 06:33:32;;;;;;;2.28;0.50;;;22.40;76.80;;;;;;4787720;29;20085;-74
2022/08/03 06:36:19;;;;;;;2.80;0.45;;;22.40;76.70;;;;;;4799646;29;20054;-73
2022/08/03 06:38:46;;;;;;;2.20;0.50;;;22.50;76.60;;;;;;4787363;29;20047;-73
2022/08/03 06:41:15;;;;;;;2.30;0.47;;;22.60;76.40;;;;;;4796772;29;20532;-73
2022/08/03 06:43:41;;;;;;;2.25;0.60;;;22.70;76.20;;;;;;4803708;29;20147;-75
2022/08/03 06:46:29;;;;;;;1.77;0.50;;;22.80;75.90;;;;;;4777082;30;20802;-75
2022/08/03 06:48:56;;;;;;;2.75;0.40;;;22.90;75.70;;;;;;4772380;30;20043;-73
2022/08/03 06:51:23;;;;;;;1.95;0.52;;;23.00;75.40;;;;;;4800469;29;20510;-73
2022/08/03 06:54:11;;;;;;;3.42;0.95;;;23.10;75.30;;;;;;4781292;29;20130;-73
2022/08/03 06:56:38;;;;;;;2.72;0.52;;;23.10;75.10;;;;;;4771494;29;20397;-73
2022/08/03 06:59:05;;;;;;;1.70;0.47;;;23.00;75.00;;;;;;4787692;29;20051;-73
2022/08/03 07:01:31;;;;;;;4.22;1.10;;;23.10;74.90;;;;;;4796960;29;20463;-73
2022/08/03 07:03:59;;;;;;;3.55;0.90;;;23.20;74.70;;;;;;4773690;29;20063;-74
2022/08/03 07:06:26;;;;;;;4.97;1.33;;;23.20;74.40;;;;;;4789392;29;20055;-73
2022/08/03 07:08:53;;;;;;;3.92;0.90;;;23.20;74.20;;;;;;4794729;29;20108;-74
2022/08/03 07:11:25;;;;;;;1.73;0.60;;;23.30;74.20;;;;;;4792214;29;20500;-73
2022/08/03 07:13:55;;;;;;;1.80;0.50;;;23.30;74.00;;;;;;4795853;29;20078;-73
2022/08/03 07:16:22;;;;;;;2.92;0.60;;;23.40;73.80;;;;;;4801128;29;20069;-73
2022/08/03 07:18:49;;;;;;;3.22;0.63;;;23.50;73.70;;;;;;4801622;29;20089;-74
2022/08/03 07:21:16;;;;;;;9.43;1.02;;;23.50;73.50;;;;;;4787354;29;20130;-74
2022/08/03 07:23:44;;;;;;;4.20;0.70;;;23.60;73.30;;;;;;4771631;29;20071;-74
2022/08/03 07:26:12;;;;;;;2.95;0.93;;;23.60;73.30;;;;;;4770655;30;20047;-74
2022/08/03 07:28:39;;;;;;;3.75;1.05;;;23.60;73.00;;;;;;4776743;29;20075;-73
2022/08/03 07:31:06;;;;;;;3.17;0.80;;;23.70;72.80;;;;;;4793954;29;20108;-71
2022/08/03 07:33:35;;;;;;;3.47;0.77;;;23.80;72.70;;;;;;4787633;29;20121;-72
2022/08/03 07:36:03;;;;;;;1.75;0.63;;;23.90;72.50;;;;;;4787865;29;20154;-72
2022/08/03 07:38:30;;;;;;;2.85;0.85;;;24.00;72.30;;;;;;4787555;29;20074;-72
2022/08/03 07:40:57;;;;;;;3.78;0.98;;;24.00;71.80;;;;;;4806307;29;20054;-72
2022/08/03 07:43:24;;;;;;;5.93;0.70;;;24.00;71.80;;;;;;4794052;29;20063;-72
2022/08/03 07:45:51;;;;;;;4.15;0.80;;;24.10;71.60;;;;;;4785322;29;20122;-72
2022/08/03 07:48:20;;;;;;;3.63;0.85;;;24.10;71.40;;;;;;4794452;29;20137;-72
2022/08/03 07:50:51;;;;;;;4.18;0.70;;;24.20;71.30;;;;;;4787316;29;20130;-72
2022/08/03 07:53:18;;;;;;;4.95;1.05;;;24.30;71.20;;;;;;4786718;29;20059;-72
2022/08/03 07:55:45;;;;;;;3.50;0.73;;;24.40;71.10;;;;;;4786452;29;20476;-72
2022/08/03 07:58:14;;;;;;;5.28;1.00;;;24.40;70.70;;;;;;4787721;29;20112;-73
2022/08/03 08:00:51;;;;;;;3.75;0.75;;;24.40;70.60;;;;;;4806178;29;20047;-74
2022/08/03 08:03:20;;;;;;;3.65;0.55;;;24.40;70.60;;;;;;4789523;29;20070;-73
2022/08/03 08:05:48;;;;;;;2.22;0.60;;;24.50;70.60;;;;;;4771214;30;20051;-72
2022/08/03 08:08:15;;;;;;;3.30;0.50;;;24.60;70.30;;;;;;4800972;29;20110;-72
2022/08/03 08:10:42;;;;;;;6.72;0.63;;;24.80;70.00;;;;;;4783630;29;20044;-72
2022/08/03 08:13:24;;;;;;;6.75;0.77;;;24.80;69.50;;;;;;4781928;29;20450;-72
2022/08/03 08:15:51;;;;;;;3.80;0.90;;;24.80;69.50;;;;;;4785488;29;20166;-72
2022/08/03 08:18:18;;;;;;;5.72;0.80;;;24.90;69.30;;;;;;4800790;29;20047;-72
2022/08/03 08:20:45;;;;;;;3.28;0.40;;;25.00;69.60;;;;;;4786817;29;20132;-72
2022/08/03 08:23:12;;;;;;;2.90;0.60;;;25.10;68.90;;;;;;4796742;29;20425;-79
2022/08/03 08:25:59;;;;;;;1.63;0.50;;;25.20;68.80;;;;;;4767286;29;20119;-78
2022/08/03 08:28:26;;;;;;;4.55;0.70;;;25.30;68.40;;;;;;4812228;29;20062;-77
2022/08/03 08:30:59;;;;;;;2.53;0.50;;;25.40;68.20;;;;;;4785993;29;20143;-77
2022/08/03 08:33:27;;;;;;;4.18;0.50;;;25.50;68.00;;;;;;4799260;29;20070;-78
2022/08/03 08:36:08;;;;;;;2.45;0.50;;;25.70;67.80;;;;;;4794980;29;20126;-77
2022/08/03 08:38:41;;;;;;;2.92;0.60;;;25.90;67.60;;;;;;4795112;29;20137;-78
2022/08/03 08:41:10;;;;;;;1.52;0.40;;;26.00;67.10;;;;;;4793037;29;20139;-78
2022/08/03 08:43:37;;;;;;;2.05;0.60;;;26.10;67.00;;;;;;4785852;29;20100;-77
2022/08/03 08:46:11;;;;;;;3.80;0.60;;;26.20;66.80;;;;;;4791456;29;20089;-77
2022/08/03 08:48:42;;;;;;;4.57;0.70;;;26.40;66.40;;;;;;4806008;29;20156;-77
2022/08/03 08:51:11;;;;;;;2.70;0.30;;;26.50;66.30;;;;;;4800363;29;20059;-75
2022/08/03 08:53:42;;;;;;;3.70;0.50;;;26.60;66.20;;;;;;4791358;29;20087;-76
2022/08/03 08:56:14;;;;;;;;;;;26.60;65.80;;;;;;4785656;29;20051;-75
2022/08/03 08:58:47;;;;;;;2.63;0.45;;;26.60;65.10;;;;;;4787987;29;19929;-75
2022/08/03 09:01:19;;;;;;;2.80;0.77;;;26.60;65.10;;;;;;4779497;29;20051;-76
2022/08/03 09:03:46;;;;;;;3.90;0.50;;;26.70;65.00;;;;;;4798535;29;20066;-81
2022/08/03 09:06:16;;;;;;;4.32;1.10;;;26.70;64.70;;;;;;4784969;29;20455;-80
2022/08/03 09:08:45;;;;;;;;;;;26.80;64.60;;;;;;4781704;29;20047;-81
2022/08/03 09:11:12;;;;;;;2.28;0.40;;;26.80;64.20;;;;;;4791117;29;20364;-81
2022/08/03 09:13:43;;;;;;;3.03;0.57;;;27.00;64.40;;;;;;4781554;29;20108;-81
2022/08/03 09:16:11;;;;;;;3.75;0.65;;;27.10;64.50;;;;;;4800913;29;20553;-81
2022/08/03 09:18:40;;;;;;;2.72;0.63;;;27.30;63.40;;;;;;4801030;29;20052;-81
2022/08/03 09:21:13;;;;;;;4.25;0.40;;;27.40;63.30;;;;;;4771035;30;20417;-80
2022/08/03 09:23:59;;;;;;;2.42;0.45;;;27.50;63.10;;;;;;4796155;29;20055;-80
2022/08/03 09:26:33;;;;;;;4.78;0.70;;;27.50;62.40;;;;;;4773271;30;20135;-80
2022/08/03 09:29:10;;;;;;;2.88;0.50;;;27.60;62.40;;;;;;4772838;29;20125;-77
2022/08/03 09:31:45;;;;;;;5.07;0.88;;;27.70;62.40;;;;;;4774859;29;20552;-76
2022/08/03 09:34:16;;;;;;;3.22;0.40;;;27.80;62.20;;;;;;4792852;29;20051;-80
2022/08/03 09:36:49;;;;;;;4.90;0.50;;;27.90;61.90;;;;;;4778446;30;20047;-80
2022/08/03 09:39:20;;;;;;;3.03;0.80;;;28.00;61.60;;;;;;4785489;29;20108;-81
2022/08/03 09:42:14;;;;;;;5.53;0.70;;;28.10;61.40;;;;;;4781509;29;20048;-81
2022/08/03 09:44:48;;;;;;;3.30;0.60;;;28.20;60.50;;;;;;4799767;29;20051;-81
2022/08/03 09:47:27;;;;;;;2.40;0.50;;;28.20;60.40;;;;;;4807343;29;20139;-81
2022/08/03 09:50:00;;;;;;;5.05;0.68;;;28.30;60.40;;;;;;4788999;29;20406;-81
2022/08/03 09:52:38;;;;;;;3.55;0.75;;;28.20;60.20;;;;;;4773684;30;20116;-81
2022/08/03 09:55:23;;;;;;;6.85;1.02;;;28.20;60.10;;;;;;4800240;29;20047;-80
2022/08/03 09:58:11;;;;;;;;;;;28.10;59.40;;;;;;4801869;29;20071;-81
2022/08/03 10:01:07;;;;;;;3.25;0.70;;;28.00;59.80;;;;;;4803093;29;19941;-80
2022/08/03 10:03:56;;;;;;;;;;;28.10;59.70;;;;;;4794176;29;20047;-78
2022/08/03 10:06:30;;;;;;;3.25;0.50;;;28.10;59.50;;;;;;4788632;29;20043;-76
2022/08/03 10:09:23;;;;;;;6.40;0.65;;;28.20;59.50;;;;;;4795900;29;20408;-76
2022/08/03 10:11:51;;;;;;;4.72;0.70;;;28.40;59.20;;;;;;4768963;29;20083;-77
2022/08/03 10:14:18;;;;;;;2.72;0.57;;;28.40;58.90;;;;;;4783924;29;20464;-75
2022/08/03 10:16:47;;;;;;;3.65;0.30;;;28.50;59.00;;;;;;4799680;29;20051;-76
2022/08/03 10:19:15;;;;;;;1.77;0.40;;;28.60;59.20;;;;;;4797822;29;20523;-76
2022/08/03 10:21:52;;;;;;;1.90;0.60;;;28.70;58.50;;;;;;4781978;29;20051;-79
2022/08/03 10:24:24;;;;;;;5.55;0.60;;;28.90;58.20;;;;;;4802316;29;20046;-76
2022/08/03 10:26:55;;;;;;;3.78;1.05;;;29.00;57.30;;;;;;4800945;29;20127;-77
2022/08/03 10:29:24;;;;;;;3.67;0.60;;;29.00;57.40;;;;;;4805595;29;20090;-77
2022/08/03 10:31:55;;;;;;;5.97;0.80;;;29.10;57.30;;;;;;4790707;29;20047;-78
2022/08/03 10:34:27;;;;;;;5.32;0.82;;;29.10;56.50;;;;;;4793092;29;20493;-76
2022/08/03 10:36:58;;;;;;;6.90;1.10;;;29.10;56.20;;;;;;4799428;29;20476;-75
2022/08/03 10:39:29;;;;;;;3.27;0.80;;;29.10;56.20;;;;;;4805773;29;20046;-76
2022/08/03 10:41:58;;;;;;;4.45;0.60;;;29.20;56.10;;;;;;4802312;29;20068;-78
2022/08/03 10:44:40;;;;;;;;;;;29.30;55.60;;;;;;4774058;30;20116;-87
2022/08/03 10:47:15;;;;;;;3.83;1.02;;;29.40;55.60;;;;;;4791517;29;19925;-84
2022/08/03 10:49:48;;;;;;;3.95;0.47;;;29.50;55.20;;;;;;4791266;29;20059;-77
2022/08/03 10:52:15;;;;;;;3.30;0.70;;;29.60;54.80;;;;;;4773224;30;20492;-82
2022/08/03 10:58:50;;;;;;;3.53;0.38;;;30.00;55.20;;;;;;4776201;29;20050;-78
2022/08/03 11:01:53;;;;;;;3.58;0.70;;;30.20;54.30;;;;;;4790076;29;20206;-75
2022/08/03 11:04:28;;;;;;;3.00;0.43;;;30.40;54.20;;;;;;4782733;29;20139;-76
2022/08/03 11:07:15;;;;;;;3.60;0.50;;;30.70;53.90;;;;;;4797824;29;20063;-78
2022/08/03 11:09:47;;;;;;;5.32;0.50;;;30.70;53.20;;;;;;4798628;29;20479;-73
2022/08/03 11:12:28;;;;;;;4.00;0.70;;;30.70;52.90;;;;;;4787180;29;20440;-72
2022/08/03 11:15:31;;;;;;;3.00;0.50;;;30.80;52.40;;;;;;4787091;29;20047;-73
2022/08/03 11:18:09;;;;;;;3.13;0.60;;;30.90;51.90;;;;;;4802165;29;20562;-73
2022/08/03 11:20:46;;;;;;;5.57;1.00;;;31.00;51.20;;;;;;4772295;29;20047;-73
2022/08/03 11:23:37;;;;;;;5.15;0.80;;;31.00;50.40;;;;;;4784656;29;20051;-73
2022/08/03 11:26:24;;;;;;;4.68;0.70;;;31.10;50.60;;;;;;4781962;29;20082;-72
2022/08/03 11:28:51;;;;;;;2.65;0.50;;;31.40;50.40;;;;;;4784357;29;20087;-73
2022/08/03 11:31:21;;;;;;;2.60;0.57;;;31.50;50.10;;;;;;4799967;29;20112;-73
2022/08/03 11:34:09;;;;;;;2.78;0.45;;;31.70;49.80;;;;;;4801641;29;20480;-73
2022/08/03 11:37:14;;;;;;;3.42;0.55;;;31.70;49.20;;;;;;4787799;29;20047;-74
2022/08/03 11:39:44;;;;;;;6.57;0.65;;;31.80;48.90;;;;;;4785736;29;20074;-74
2022/08/03 11:42:24;;;;;;;6.38;0.70;;;31.90;48.00;;;;;;4769047;30;20067;-74
2022/08/03 11:44:53;;;;;;;4.55;0.68;;;31.90;47.90;;;;;;4785865;29;20067;-75
2022/08/03 11:47:21;;;;;;;4.30;0.70;;;32.00;47.90;;;;;;4787777;29;20051;-75
2022/08/03 11:49:50;;;;;;;3.22;0.77;;;32.20;47.60;;;;;;4787964;29;20108;-75
2022/08/03 11:52:18;;;;;;;3.08;0.57;;;32.30;47.70;;;;;;4771717;30;20166;-76
2022/08/03 11:54:53;;;;;;;3.65;0.57;;;32.50;47.60;;;;;;4799170;29;20547;-74
2022/08/03 11:57:30;;;;;;;3.05;0.50;;;32.70;47.00;;;;;;4766569;29;20493;-74
2022/08/03 12:00:30;;;;;;;2.65;0.60;;;32.80;46.70;;;;;;4786949;29;20086;-75
2022/08/03 12:03:00;;;;;;;5.03;0.50;;;32.90;46.20;;;;;;4771015;30;20089;-74
2022/08/03 12:06:01;;;;;;;2.67;0.50;;;33.10;46.10;;;;;;4787463;29;20086;-74
2022/08/03 12:08:31;;;;;;;3.45;0.40;;;33.40;45.80;;;;;;4746103;29;20067;-76
2022/08/03 12:11:01;;;;;;;2.90;0.50;;;33.60;45.40;;;;;;4784764;29;20116;-76
2022/08/03 12:13:49;;;;;;;4.88;0.82;;;33.60;44.50;;;;;;4786300;29;20083;-76
2022/08/03 12:16:36;;;;;;;6.97;0.93;;;33.80;44.30;;;;;;4783526;29;20423;-75
2022/08/03 12:19:05;;;;;;;4.40;0.70;;;33.70;43.70;;;;;;4771041;29;20134;-73
2022/08/03 12:21:32;;;;;;;5.60;0.52;;;33.90;43.90;;;;;;4787555;29;20051;-73
2022/08/03 12:24:02;;;;;;;3.90;0.70;;;34.10;43.80;;;;;;4771152;29;20093;-76
2022/08/03 12:26:40;;;;;;;3.05;0.40;;;34.40;43.50;;;;;;4771556;29;20079;-74
2022/08/03 12:29:15;;;;;;;3.60;0.60;;;34.60;43.40;;;;;;4785708;29;20059;-75
2022/08/03 12:31:42;;;;;;;3.47;0.30;;;34.80;43.10;;;;;;4786069;29;20079;-76
2022/08/03 12:34:08;;;;;;;4.05;0.57;;;35.10;43.20;;;;;;4785846;29;20055;-74
2022/08/03 12:36:36;;;;;;;3.40;0.77;;;35.50;43.10;;;;;;4786816;29;20135;-74
2022/08/03 12:39:07;;;;;;;2.17;0.40;;;35.80;42.90;;;;;;4800912;29;20123;-74
2022/08/03 12:41:39;;;;;;;2.15;0.65;;;36.00;42.60;;;;;;4785533;29;20108;-73
2022/08/03 12:44:08;;;;;;;3.40;0.80;;;36.10;42.40;;;;;;4800539;29;20140;-74
2022/08/03 12:46:37;;;;;;;4.57;0.50;;;36.00;41.50;;;;;;4800211;29;20142;-73
2022/08/03 12:49:14;;;;;;;3.38;0.40;;;36.00;42.30;;;;;;4786809;29;20135;-75
2022/08/03 12:51:41;;;;;;;3.10;0.40;;;36.30;41.70;;;;;;4786821;29;20051;-76
2022/08/03 12:54:30;;;;;;;2.95;0.50;;;36.50;41.20;;;;;;4770556;30;20078;-75
2022/08/03 12:57:09;;;;;;;2.35;0.55;;;36.50;40.80;;;;;;4770269;29;20100;-74
2022/08/03 12:59:45;;;;;;;3.20;0.35;;;36.60;40.80;;;;;;4786755;29;20100;-74
2022/08/03 13:02:21;;;;;;;4.32;0.47;;;36.80;40.60;;;;;;4785393;29;20083;-74
2022/08/03 13:04:51;;;;;;;4.90;0.40;;;36.70;39.70;;;;;;4770426;30;20108;-73
2022/08/03 13:07:20;;;;;;;4.07;0.95;;;36.60;39.40;;;;;;4792051;29;20204;-75
2022/08/03 13:09:48;;;;;;;4.45;0.82;;;36.50;38.90;;;;;;4770788;30;20058;-75
2022/08/03 13:12:21;;;;;;;2.78;0.73;;;36.30;38.60;;;;;;4786526;29;20076;-74
2022/08/03 13:14:51;;;;;;;3.33;0.40;;;36.50;38.90;;;;;;4767396;30;20079;-74
2022/08/03 13:17:18;;;;;;;1.67;0.10;;;36.80;38.90;;;;;;4792003;29;20140;-74
2022/08/03 13:19:46;;;;;;;1.40;0.22;;;37.20;38.90;;;;;;4785087;29;20492;-74
2022/08/03 13:22:15;;;;;;;2.67;0.40;;;37.80;38.80;;;;;;4783038;29;20551;-75
2022/08/03 13:24:44;;;;;;;1.38;0.20;;;38.30;38.40;;;;;;4767939;30;20142;-77
2022/08/03 13:27:12;;;;;;;1.58;0.55;;;38.00;37.80;;;;;;4786215;29;20112;-75